sensor_id;sensor_type;location;lat;lon;timestamp;temperature;humidity
39675;DHT22;27790;50.840;4.386;2022-07-23T00:00:55;18.90;90.10
39675;DHT22;27790;50.840;4.386;2022-07-23T00:03:20;19.00;90.00
39675;DHT22;27790;50.840;4.386;2022-07-23T00:05:46;19.00;90.00
39675;DHT22;27790;50.840;4.386;2022-07-23T00:08:12;18.90;90.00
39675;DHT22;27790;50.840;4.386;2022-07-23T00:10:37;18.90;90.10
39675;DHT22;27790;50.840;4.386;2022-07-23T00:13:03;18.80;90.20
39675;DHT22;27790;50.840;4.386;2022-07-23T00:15:29;18.70;90.30
39675;DHT22;27790;50.840;4.386;2022-07-23T00:17:55;18.70;90.40
39675;DHT22;27790;50.840;4.386;2022-07-23T00:20:21;18.70;90.50
39675;DHT22;27790;50.840;4.386;2022-07-23T00:22:48;18.60;90.60
39675;DHT22;27790;50.840;4.386;2022-07-23T00:25:14;18.70;90.60
39675;DHT22;27790;50.840;4.386;2022-07-23T00:27:39;18.70;90.80
39675;DHT22;27790;50.840;4.386;2022-07-23T00:30:05;18.60;91.00
39675;DHT22;27790;50.840;4.386;2022-07-23T00:32:31;18.50;90.90
39675;DHT22;27790;50.840;4.386;2022-07-23T00:34:57;18.50;91.20
39675;DHT22;27790;50.840;4.386;2022-07-23T00:37:22;18.40;91.10
39675;DHT22;27790;50.840;4.386;2022-07-23T00:39:48;18.30;91.20
39675;DHT22;27790;50.840;4.386;2022-07-23T00:42:14;18.40;91.20
39675;DHT22;27790;50.840;4.386;2022-07-23T00:44:39;18.30;91.20
39675;DHT22;27790;50.840;4.386;2022-07-23T00:47:05;18.20;91.30
39675;DHT22;27790;50.840;4.386;2022-07-23T00:49:31;18.20;91.40
39675;DHT22;27790;50.840;4.386;2022-07-23T00:51:57;18.20;91.60
39675;DHT22;27790;50.840;4.386;2022-07-23T00:54:26;18.10;91.60
39675;DHT22;27790;50.840;4.386;2022-07-23T00:56:53;18.10;91.70
39675;DHT22;27790;50.840;4.386;2022-07-23T00:59:18;18.20;91.70
39675;DHT22;27790;50.840;4.386;2022-07-23T01:01:44;18.20;91.60
39675;DHT22;27790;50.840;4.386;2022-07-23T01:04:12;18.20;91.60
39675;DHT22;27790;50.840;4.386;2022-07-23T01:06:38;18.20;91.60
39675;DHT22;27790;50.840;4.386;2022-07-23T01:09:05;18.30;91.50
39675;DHT22;27790;50.840;4.386;2022-07-23T01:11:33;18.20;91.60
39675;DHT22;27790;50.840;4.386;2022-07-23T01:13:59;18.20;91.60
39675;DHT22;27790;50.840;4.386;2022-07-23T01:16:25;18.20;91.60
39675;DHT22;27790;50.840;4.386;2022-07-23T01:18:50;18.20;91.60
39675;DHT22;27790;50.840;4.386;2022-07-23T01:21:18;18.20;91.50
39675;DHT22;27790;50.840;4.386;2022-07-23T01:23:44;18.20;91.50
39675;DHT22;27790;50.840;4.386;2022-07-23T01:26:09;18.20;91.60
39675;DHT22;27790;50.840;4.386;2022-07-23T01:28:35;18.20;91.60
39675;DHT22;27790;50.840;4.386;2022-07-23T01:31:01;18.20;91.60
39675;DHT22;27790;50.840;4.386;2022-07-23T01:33:26;18.20;91.60
39675;DHT22;27790;50.840;4.386;2022-07-23T01:35:52;18.20;91.70
39675;DHT22;27790;50.840;4.386;2022-07-23T01:38:17;18.10;92.00
39675;DHT22;27790;50.840;4.386;2022-07-23T01:40:43;18.00;91.90
39675;DHT22;27790;50.840;4.386;2022-07-23T01:43:08;18.00;91.90
39675;DHT22;27790;50.840;4.386;2022-07-23T01:45:34;18.00;92.00
39675;DHT22;27790;50.840;4.386;2022-07-23T01:48:03;18.00;92.00
39675;DHT22;27790;50.840;4.386;2022-07-23T01:50:28;18.00;92.00
39675;DHT22;27790;50.840;4.386;2022-07-23T01:52:54;18.00;92.10
39675;DHT22;27790;50.840;4.386;2022-07-23T01:55:20;18.00;92.20
39675;DHT22;27790;50.840;4.386;2022-07-23T01:57:46;18.00;92.10
39675;DHT22;27790;50.840;4.386;2022-07-23T02:00:12;18.00;92.20
39675;DHT22;27790;50.840;4.386;2022-07-23T02:02:38;18.00;92.20
39675;DHT22;27790;50.840;4.386;2022-07-23T02:05:03;18.00;92.30
39675;DHT22;27790;50.840;4.386;2022-07-23T02:07:29;18.00;92.30
39675;DHT22;27790;50.840;4.386;2022-07-23T02:09:54;18.00;92.20
39675;DHT22;27790;50.840;4.386;2022-07-23T02:12:20;18.00;92.20
39675;DHT22;27790;50.840;4.386;2022-07-23T02:14:46;18.00;92.10
39675;DHT22;27790;50.840;4.386;2022-07-23T02:17:11;18.00;92.20
39675;DHT22;27790;50.840;4.386;2022-07-23T02:19:37;17.90;92.30
39675;DHT22;27790;50.840;4.386;2022-07-23T02:22:02;17.90;92.40
39675;DHT22;27790;50.840;4.386;2022-07-23T02:24:28;17.90;92.30
39675;DHT22;27790;50.840;4.386;2022-07-23T02:26:53;17.90;92.40
39675;DHT22;27790;50.840;4.386;2022-07-23T02:29:19;17.90;92.50
39675;DHT22;27790;50.840;4.386;2022-07-23T02:31:44;17.90;92.50
39675;DHT22;27790;50.840;4.386;2022-07-23T02:34:11;17.80;92.50
39675;DHT22;27790;50.840;4.386;2022-07-23T02:36:38;17.80;92.60
39675;DHT22;27790;50.840;4.386;2022-07-23T02:39:04;17.80;92.70
39675;DHT22;27790;50.840;4.386;2022-07-23T02:41:30;17.80;92.70
39675;DHT22;27790;50.840;4.386;2022-07-23T02:43:55;17.80;92.60
39675;DHT22;27790;50.840;4.386;2022-07-23T02:46:21;17.90;92.60
39675;DHT22;27790;50.840;4.386;2022-07-23T02:48:46;17.90;92.60
39675;DHT22;27790;50.840;4.386;2022-07-23T02:51:12;17.90;92.60
39675;DHT22;27790;50.840;4.386;2022-07-23T02:53:38;17.90;92.60
39675;DHT22;27790;50.840;4.386;2022-07-23T02:56:03;17.90;92.60
39675;DHT22;27790;50.840;4.386;2022-07-23T02:58:29;17.80;92.60
39675;DHT22;27790;50.840;4.386;2022-07-23T03:00:55;17.90;92.70
39675;DHT22;27790;50.840;4.386;2022-07-23T03:03:20;17.90;92.60
39675;DHT22;27790;50.840;4.386;2022-07-23T03:05:46;18.00;92.60
39675;DHT22;27790;50.840;4.386;2022-07-23T03:08:12;18.00;92.50
39675;DHT22;27790;50.840;4.386;2022-07-23T03:10:37;18.00;92.40
39675;DHT22;27790;50.840;4.386;2022-07-23T03:13:03;18.00;92.50
39675;DHT22;27790;50.840;4.386;2022-07-23T03:15:29;18.00;92.50
39675;DHT22;27790;50.840;4.386;2022-07-23T03:17:54;18.00;92.50
39675;DHT22;27790;50.840;4.386;2022-07-23T03:20:20;18.00;92.50
39675;DHT22;27790;50.840;4.386;2022-07-23T03:22:45;18.00;92.50
39675;DHT22;27790;50.840;4.386;2022-07-23T03:25:11;17.90;92.50
39675;DHT22;27790;50.840;4.386;2022-07-23T03:27:37;17.90;92.60
39675;DHT22;27790;50.840;4.386;2022-07-23T03:30:03;17.90;92.60
39675;DHT22;27790;50.840;4.386;2022-07-23T03:32:28;17.80;92.70
39675;DHT22;27790;50.840;4.386;2022-07-23T03:34:54;17.80;92.80
39675;DHT22;27790;50.840;4.386;2022-07-23T03:37:20;17.90;93.00
39675;DHT22;27790;50.840;4.386;2022-07-23T03:39:46;17.80;93.00
39675;DHT22;27790;50.840;4.386;2022-07-23T03:42:11;17.80;92.90
39675;DHT22;27790;50.840;4.386;2022-07-23T03:44:37;17.90;92.90
39675;DHT22;27790;50.840;4.386;2022-07-23T03:47:04;17.90;92.80
39675;DHT22;27790;50.840;4.386;2022-07-23T03:49:30;17.80;92.90
39675;DHT22;27790;50.840;4.386;2022-07-23T03:51:55;17.80;92.90
39675;DHT22;27790;50.840;4.386;2022-07-23T03:54:21;17.80;93.00
39675;DHT22;27790;50.840;4.386;2022-07-23T03:56:46;17.90;92.90
39675;DHT22;27790;50.840;4.386;2022-07-23T03:59:12;17.90;92.80
39675;DHT22;27790;50.840;4.386;2022-07-23T04:01:38;17.90;92.70
39675;DHT22;27790;50.840;4.386;2022-07-23T04:04:03;18.00;92.60
39675;DHT22;27790;50.840;4.386;2022-07-23T04:06:29;18.00;92.50
39675;DHT22;27790;50.840;4.386;2022-07-23T04:08:55;18.00;92.40
39675;DHT22;27790;50.840;4.386;2022-07-23T04:11:21;18.00;92.50
39675;DHT22;27790;50.840;4.386;2022-07-23T04:13:46;18.00;92.30
39675;DHT22;27790;50.840;4.386;2022-07-23T04:16:12;18.10;92.30
39675;DHT22;27790;50.840;4.386;2022-07-23T04:18:38;18.10;92.30
39675;DHT22;27790;50.840;4.386;2022-07-23T04:21:03;18.10;92.20
39675;DHT22;27790;50.840;4.386;2022-07-23T04:23:29;18.10;92.30
39675;DHT22;27790;50.840;4.386;2022-07-23T04:25:55;18.10;92.30
39675;DHT22;27790;50.840;4.386;2022-07-23T04:28:20;18.10;92.20
39675;DHT22;27790;50.840;4.386;2022-07-23T04:30:46;18.20;92.20
39675;DHT22;27790;50.840;4.386;2022-07-23T04:33:11;18.20;92.20
39675;DHT22;27790;50.840;4.386;2022-07-23T04:35:37;18.20;92.10
39675;DHT22;27790;50.840;4.386;2022-07-23T04:38:03;18.30;91.90
39675;DHT22;27790;50.840;4.386;2022-07-23T04:40:29;18.60;91.60
39675;DHT22;27790;50.840;4.386;2022-07-23T04:42:55;18.90;91.10
39675;DHT22;27790;50.840;4.386;2022-07-23T04:45:21;19.30;90.30
39675;DHT22;27790;50.840;4.386;2022-07-23T04:47:47;19.60;89.20
39675;DHT22;27790;50.840;4.386;2022-07-23T04:50:12;20.00;88.30
39675;DHT22;27790;50.840;4.386;2022-07-23T04:52:38;20.40;86.60
39675;DHT22;27790;50.840;4.386;2022-07-23T04:55:04;20.60;85.50
39675;DHT22;27790;50.840;4.386;2022-07-23T04:57:30;20.90;84.40
39675;DHT22;27790;50.840;4.386;2022-07-23T04:59:55;21.20;83.50
39675;DHT22;27790;50.840;4.386;2022-07-23T05:02:21;21.40;82.80
39675;DHT22;27790;50.840;4.386;2022-07-23T05:04:47;21.80;82.20
39675;DHT22;27790;50.840;4.386;2022-07-23T05:07:12;22.10;81.10
39675;DHT22;27790;50.840;4.386;2022-07-23T05:09:38;22.50;79.40
39675;DHT22;27790;50.840;4.386;2022-07-23T05:12:04;22.70;78.40
39675;DHT22;27790;50.840;4.386;2022-07-23T05:14:29;23.10;77.90
39675;DHT22;27790;50.840;4.386;2022-07-23T05:16:55;23.40;76.40
39675;DHT22;27790;50.840;4.386;2022-07-23T05:19:21;23.70;75.10
39675;DHT22;27790;50.840;4.386;2022-07-23T05:21:47;23.90;73.90
39675;DHT22;27790;50.840;4.386;2022-07-23T05:24:12;24.20;73.60
39675;DHT22;27790;50.840;4.386;2022-07-23T05:26:38;24.30;72.70
39675;DHT22;27790;50.840;4.386;2022-07-23T05:29:03;24.40;72.70
39675;DHT22;27790;50.840;4.386;2022-07-23T05:31:29;24.60;71.80
39675;DHT22;27790;50.840;4.386;2022-07-23T05:33:55;24.50;71.20
39675;DHT22;27790;50.840;4.386;2022-07-23T05:36:20;24.00;72.50
39675;DHT22;27790;50.840;4.386;2022-07-23T05:38:46;23.60;73.80
39675;DHT22;27790;50.840;4.386;2022-07-23T05:41:12;23.00;75.50
39675;DHT22;27790;50.840;4.386;2022-07-23T05:43:37;22.40;77.60
39675;DHT22;27790;50.840;4.386;2022-07-23T05:46:03;21.90;79.50
39675;DHT22;27790;50.840;4.386;2022-07-23T05:48:29;21.60;81.20
39675;DHT22;27790;50.840;4.386;2022-07-23T05:50:54;21.40;81.40
39675;DHT22;27790;50.840;4.386;2022-07-23T05:53:20;21.20;82.20
39675;DHT22;27790;50.840;4.386;2022-07-23T05:55:45;20.90;82.60
39675;DHT22;27790;50.840;4.386;2022-07-23T05:58:11;20.70;83.60
39675;DHT22;27790;50.840;4.386;2022-07-23T06:00:37;20.60;84.90
39675;DHT22;27790;50.840;4.386;2022-07-23T06:03:02;20.70;84.90
39675;DHT22;27790;50.840;4.386;2022-07-23T06:05:28;20.90;83.90
39675;DHT22;27790;50.840;4.386;2022-07-23T06:07:54;21.20;83.20
39675;DHT22;27790;50.840;4.386;2022-07-23T06:10:20;21.50;82.00
39675;DHT22;27790;50.840;4.386;2022-07-23T06:12:46;21.50;81.20
39675;DHT22;27790;50.840;4.386;2022-07-23T06:15:12;21.40;82.10
39675;DHT22;27790;50.840;4.386;2022-07-23T06:17:38;21.40;83.20
39675;DHT22;27790;50.840;4.386;2022-07-23T06:20:08;21.30;82.20
39675;DHT22;27790;50.840;4.386;2022-07-23T06:22:35;21.20;82.30
39675;DHT22;27790;50.840;4.386;2022-07-23T06:25:01;21.20;83.10
39675;DHT22;27790;50.840;4.386;2022-07-23T06:27:26;21.20;82.30
39675;DHT22;27790;50.840;4.386;2022-07-23T06:29:52;21.20;82.90
39675;DHT22;27790;50.840;4.386;2022-07-23T06:32:18;21.40;81.90
39675;DHT22;27790;50.840;4.386;2022-07-23T06:34:44;21.60;82.30
39675;DHT22;27790;50.840;4.386;2022-07-23T06:37:10;21.80;80.70
39675;DHT22;27790;50.840;4.386;2022-07-23T06:39:35;21.60;81.00
39675;DHT22;27790;50.840;4.386;2022-07-23T06:42:01;21.70;81.50
39675;DHT22;27790;50.840;4.386;2022-07-23T06:44:27;21.60;80.90
39675;DHT22;27790;50.840;4.386;2022-07-23T06:46:52;21.60;81.50
39675;DHT22;27790;50.840;4.386;2022-07-23T06:52:02;21.90;80.30
39675;DHT22;27790;50.840;4.386;2022-07-23T06:54:28;22.40;78.50
39675;DHT22;27790;50.840;4.386;2022-07-23T06:56:53;23.00;77.30
39675;DHT22;27790;50.840;4.386;2022-07-23T06:59:19;23.80;75.40
39675;DHT22;27790;50.840;4.386;2022-07-23T07:01:45;24.50;72.60
39675;DHT22;27790;50.840;4.386;2022-07-23T07:04:10;25.10;70.20
39675;DHT22;27790;50.840;4.386;2022-07-23T07:06:36;25.40;69.60
39675;DHT22;27790;50.840;4.386;2022-07-23T07:09:02;25.60;67.80
39675;DHT22;27790;50.840;4.386;2022-07-23T07:11:27;25.70;67.90
39675;DHT22;27790;50.840;4.386;2022-07-23T07:13:53;25.80;67.80
39675;DHT22;27790;50.840;4.386;2022-07-23T07:16:19;26.00;67.30
39675;DHT22;27790;50.840;4.386;2022-07-23T07:18:44;26.50;67.10
39675;DHT22;27790;50.840;4.386;2022-07-23T07:21:11;26.90;66.40
39675;DHT22;27790;50.840;4.386;2022-07-23T07:23:37;27.30;64.50
39675;DHT22;27790;50.840;4.386;2022-07-23T07:26:02;27.40;64.20
39675;DHT22;27790;50.840;4.386;2022-07-23T07:28:28;27.50;64.30
39675;DHT22;27790;50.840;4.386;2022-07-23T07:30:53;28.00;63.20
39675;DHT22;27790;50.840;4.386;2022-07-23T07:33:19;28.20;61.70
39675;DHT22;27790;50.840;4.386;2022-07-23T07:35:46;28.30;61.90
39675;DHT22;27790;50.840;4.386;2022-07-23T07:38:12;28.20;61.60
39675;DHT22;27790;50.840;4.386;2022-07-23T07:40:37;28.30;61.50
39675;DHT22;27790;50.840;4.386;2022-07-23T07:43:03;28.50;60.90
39675;DHT22;27790;50.840;4.386;2022-07-23T07:45:29;28.50;61.20
39675;DHT22;27790;50.840;4.386;2022-07-23T07:47:54;28.50;60.50
39675;DHT22;27790;50.840;4.386;2022-07-23T07:50:21;28.80;60.30
39675;DHT22;27790;50.840;4.386;2022-07-23T07:52:47;28.80;60.80
39675;DHT22;27790;50.840;4.386;2022-07-23T07:55:13;28.80;60.20
39675;DHT22;27790;50.840;4.386;2022-07-23T07:57:39;28.90;60.00
39675;DHT22;27790;50.840;4.386;2022-07-23T08:00:06;28.80;60.10
39675;DHT22;27790;50.840;4.386;2022-07-23T08:02:44;29.00;59.90
39675;DHT22;27790;50.840;4.386;2022-07-23T08:05:10;29.00;59.20
39675;DHT22;27790;50.840;4.386;2022-07-23T08:07:36;28.90;59.10
39675;DHT22;27790;50.840;4.386;2022-07-23T08:10:03;29.20;58.50
39675;DHT22;27790;50.840;4.386;2022-07-23T08:12:41;29.30;57.90
39675;DHT22;27790;50.840;4.386;2022-07-23T08:15:07;29.40;57.80
39675;DHT22;27790;50.840;4.386;2022-07-23T08:17:33;29.50;57.20
39675;DHT22;27790;50.840;4.386;2022-07-23T08:19:58;29.60;57.10
39675;DHT22;27790;50.840;4.386;2022-07-23T08:22:24;29.70;57.00
39675;DHT22;27790;50.840;4.386;2022-07-23T08:24:49;30.00;56.90
39675;DHT22;27790;50.840;4.386;2022-07-23T08:27:15;30.20;55.90
39675;DHT22;27790;50.840;4.386;2022-07-23T08:29:40;30.50;55.50
39675;DHT22;27790;50.840;4.386;2022-07-23T08:32:06;30.70;55.20
39675;DHT22;27790;50.840;4.386;2022-07-23T08:34:32;30.80;54.80
39675;DHT22;27790;50.840;4.386;2022-07-23T08:36:57;30.90;55.30
39675;DHT22;27790;50.840;4.386;2022-07-23T08:39:23;31.00;54.30
39675;DHT22;27790;50.840;4.386;2022-07-23T08:41:49;31.30;54.40
39675;DHT22;27790;50.840;4.386;2022-07-23T08:44:16;31.10;54.40
39675;DHT22;27790;50.840;4.386;2022-07-23T08:46:43;30.80;55.40
39675;DHT22;27790;50.840;4.386;2022-07-23T08:49:10;31.10;55.60
39675;DHT22;27790;50.840;4.386;2022-07-23T08:51:35;31.40;54.30
39675;DHT22;27790;50.840;4.386;2022-07-23T08:54:01;31.70;54.40
39675;DHT22;27790;50.840;4.386;2022-07-23T08:56:27;31.90;53.00
39675;DHT22;27790;50.840;4.386;2022-07-23T08:58:55;32.20;52.30
39675;DHT22;27790;50.840;4.386;2022-07-23T09:01:21;32.60;51.10
39675;DHT22;27790;50.840;4.386;2022-07-23T09:03:47;32.90;51.10
39675;DHT22;27790;50.840;4.386;2022-07-23T09:06:12;33.10;50.60
39675;DHT22;27790;50.840;4.386;2022-07-23T09:08:43;33.40;50.00
39675;DHT22;27790;50.840;4.386;2022-07-23T09:11:10;33.80;49.30
39675;DHT22;27790;50.840;4.386;2022-07-23T09:13:40;34.00;48.40
39675;DHT22;27790;50.840;4.386;2022-07-23T09:16:11;33.90;48.20
39675;DHT22;27790;50.840;4.386;2022-07-23T09:18:48;33.70;48.70
39675;DHT22;27790;50.840;4.386;2022-07-23T09:23:49;33.50;47.80
39675;DHT22;27790;50.840;4.386;2022-07-23T09:31:58;33.40;48.50
39675;DHT22;27790;50.840;4.386;2022-07-23T09:34:30;32.70;47.70
39675;DHT22;27790;50.840;4.386;2022-07-23T09:37:18;31.50;48.50
39675;DHT22;27790;50.840;4.386;2022-07-23T09:39:46;30.70;49.20
39675;DHT22;27790;50.840;4.386;2022-07-23T09:42:17;30.00;51.50
39675;DHT22;27790;50.840;4.386;2022-07-23T09:44:48;29.70;52.60
39675;DHT22;27790;50.840;4.386;2022-07-23T09:47:14;29.40;53.30
39675;DHT22;27790;50.840;4.386;2022-07-23T09:49:40;29.10;54.30
39675;DHT22;27790;50.840;4.386;2022-07-23T09:52:06;28.80;55.10
39675;DHT22;27790;50.840;4.386;2022-07-23T09:54:32;28.60;57.60
39675;DHT22;27790;50.840;4.386;2022-07-23T09:57:03;28.50;55.00
39675;DHT22;27790;50.840;4.386;2022-07-23T09:59:36;28.30;55.50
39675;DHT22;27790;50.840;4.386;2022-07-23T10:02:05;27.90;56.30
39675;DHT22;27790;50.840;4.386;2022-07-23T10:04:31;27.40;57.00
39675;DHT22;27790;50.840;4.386;2022-07-23T10:07:01;27.00;57.70
39675;DHT22;27790;50.840;4.386;2022-07-23T10:09:40;26.70;59.10
39675;DHT22;27790;50.840;4.386;2022-07-23T10:12:10;26.40;59.70
39675;DHT22;27790;50.840;4.386;2022-07-23T10:14:38;26.40;60.50
39675;DHT22;27790;50.840;4.386;2022-07-23T10:17:04;26.30;59.40
39675;DHT22;27790;50.840;4.386;2022-07-23T10:19:32;26.20;59.10
39675;DHT22;27790;50.840;4.386;2022-07-23T10:22:01;26.10;60.00
39675;DHT22;27790;50.840;4.386;2022-07-23T10:27:20;26.00;60.30
39675;DHT22;27790;50.840;4.386;2022-07-23T10:30:00;26.00;59.40
39675;DHT22;27790;50.840;4.386;2022-07-23T10:35:37;25.90;61.20
39675;DHT22;27790;50.840;4.386;2022-07-23T10:40:58;26.20;59.50
39675;DHT22;27790;50.840;4.386;2022-07-23T10:43:24;26.40;60.40
39675;DHT22;27790;50.840;4.386;2022-07-23T10:45:51;26.40;62.80
39675;DHT22;27790;50.840;4.386;2022-07-23T10:48:24;26.40;59.20
39675;DHT22;27790;50.840;4.386;2022-07-23T10:51:05;26.40;60.50
39675;DHT22;27790;50.840;4.386;2022-07-23T10:59:06;26.70;58.30
39675;DHT22;27790;50.840;4.386;2022-07-23T11:01:36;26.70;58.60
39675;DHT22;27790;50.840;4.386;2022-07-23T11:04:04;26.50;59.50
39675;DHT22;27790;50.840;4.386;2022-07-23T11:17:27;26.90;57.80
39675;DHT22;27790;50.840;4.386;2022-07-23T11:25:03;26.90;57.50
39675;DHT22;27790;50.840;4.386;2022-07-23T11:27:49;26.70;57.40
39675;DHT22;27790;50.840;4.386;2022-07-23T11:35:40;26.50;57.90
39675;DHT22;27790;50.840;4.386;2022-07-23T11:40:36;26.40;58.00
39675;DHT22;27790;50.840;4.386;2022-07-23T11:43:04;26.40;58.70
39675;DHT22;27790;50.840;4.386;2022-07-23T11:45:35;26.40;57.60
39675;DHT22;27790;50.840;4.386;2022-07-23T11:48:03;26.50;58.80
39675;DHT22;27790;50.840;4.386;2022-07-23T11:50:29;26.70;57.80
39675;DHT22;27790;50.840;4.386;2022-07-23T11:52:55;26.80;57.60
39675;DHT22;27790;50.840;4.386;2022-07-23T11:55:21;26.90;57.30
39675;DHT22;27790;50.840;4.386;2022-07-23T11:57:47;26.90;57.20
39675;DHT22;27790;50.840;4.386;2022-07-23T12:00:20;26.80;57.50
39675;DHT22;27790;50.840;4.386;2022-07-23T12:02:49;26.90;59.30
39675;DHT22;27790;50.840;4.386;2022-07-23T12:05:24;26.90;57.20
39675;DHT22;27790;50.840;4.386;2022-07-23T12:07:53;26.90;57.60
39675;DHT22;27790;50.840;4.386;2022-07-23T12:10:27;27.00;57.20
39675;DHT22;27790;50.840;4.386;2022-07-23T12:12:57;27.10;57.60
39675;DHT22;27790;50.840;4.386;2022-07-23T12:15:36;27.10;56.40
39675;DHT22;27790;50.840;4.386;2022-07-23T12:18:05;27.20;57.00
39675;DHT22;27790;50.840;4.386;2022-07-23T12:20:34;27.40;56.60
39675;DHT22;27790;50.840;4.386;2022-07-23T12:23:03;27.50;58.80
39675;DHT22;27790;50.840;4.386;2022-07-23T12:25:31;27.60;56.70
39675;DHT22;27790;50.840;4.386;2022-07-23T12:30:37;27.80;56.60
39675;DHT22;27790;50.840;4.386;2022-07-23T12:33:04;27.80;55.80
39675;DHT22;27790;50.840;4.386;2022-07-23T12:35:39;27.80;57.20
39675;DHT22;27790;50.840;4.386;2022-07-23T12:38:09;27.80;57.40
39675;DHT22;27790;50.840;4.386;2022-07-23T12:40:47;28.10;55.30
39675;DHT22;27790;50.840;4.386;2022-07-23T12:43:28;28.20;54.60
39675;DHT22;27790;50.840;4.386;2022-07-23T12:46:20;28.20;55.40
39675;DHT22;27790;50.840;4.386;2022-07-23T12:51:29;28.10;55.10
39675;DHT22;27790;50.840;4.386;2022-07-23T12:56:32;28.00;56.60
39675;DHT22;27790;50.840;4.386;2022-07-23T12:59:11;28.00;55.30
39675;DHT22;27790;50.840;4.386;2022-07-23T13:01:40;28.00;55.30
39675;DHT22;27790;50.840;4.386;2022-07-23T13:04:09;28.00;54.10
39675;DHT22;27790;50.840;4.386;2022-07-23T13:06:41;28.10;54.30
39675;DHT22;27790;50.840;4.386;2022-07-23T13:09:09;28.00;54.30
39675;DHT22;27790;50.840;4.386;2022-07-23T13:11:35;28.00;54.50
39675;DHT22;27790;50.840;4.386;2022-07-23T13:14:01;28.00;55.00
39675;DHT22;27790;50.840;4.386;2022-07-23T13:16:29;28.10;55.60
39675;DHT22;27790;50.840;4.386;2022-07-23T13:18:55;28.20;55.00
39675;DHT22;27790;50.840;4.386;2022-07-23T13:21:25;28.20;56.00
39675;DHT22;27790;50.840;4.386;2022-07-23T13:23:50;28.20;56.40
39675;DHT22;27790;50.840;4.386;2022-07-23T13:26:16;28.40;55.20
39675;DHT22;27790;50.840;4.386;2022-07-23T13:28:42;28.50;55.90
39675;DHT22;27790;50.840;4.386;2022-07-23T13:31:08;28.50;55.80
39675;DHT22;27790;50.840;4.386;2022-07-23T13:33:34;28.60;54.80
39675;DHT22;27790;50.840;4.386;2022-07-23T13:36:00;28.60;56.00
39675;DHT22;27790;50.840;4.386;2022-07-23T13:38:25;28.40;57.00
39675;DHT22;27790;50.840;4.386;2022-07-23T13:40:52;28.30;54.10
39675;DHT22;27790;50.840;4.386;2022-07-23T13:43:19;28.30;53.20
39675;DHT22;27790;50.840;4.386;2022-07-23T13:45:45;28.30;53.10
39675;DHT22;27790;50.840;4.386;2022-07-23T13:48:12;28.30;53.70
39675;DHT22;27790;50.840;4.386;2022-07-23T13:50:40;28.50;53.50
39675;DHT22;27790;50.840;4.386;2022-07-23T13:53:09;28.60;53.50
39675;DHT22;27790;50.840;4.386;2022-07-23T13:55:35;28.60;54.30
39675;DHT22;27790;50.840;4.386;2022-07-23T13:58:01;28.70;55.00
39675;DHT22;27790;50.840;4.386;2022-07-23T14:00:28;28.60;53.00
39675;DHT22;27790;50.840;4.386;2022-07-23T14:02:59;28.70;55.60
39675;DHT22;27790;50.840;4.386;2022-07-23T14:05:25;28.60;53.40
39675;DHT22;27790;50.840;4.386;2022-07-23T14:07:51;28.60;52.90
39675;DHT22;27790;50.840;4.386;2022-07-23T14:10:19;28.60;52.80
39675;DHT22;27790;50.840;4.386;2022-07-23T14:12:46;28.50;53.50
39675;DHT22;27790;50.840;4.386;2022-07-23T14:15:12;28.60;55.20
39675;DHT22;27790;50.840;4.386;2022-07-23T14:17:40;28.50;54.40
39675;DHT22;27790;50.840;4.386;2022-07-23T14:20:07;28.30;54.50
39675;DHT22;27790;50.840;4.386;2022-07-23T14:22:33;28.30;54.00
39675;DHT22;27790;50.840;4.386;2022-07-23T14:24:59;28.40;54.60
39675;DHT22;27790;50.840;4.386;2022-07-23T14:27:27;28.40;54.10
39675;DHT22;27790;50.840;4.386;2022-07-23T14:29:54;28.50;54.60
39675;DHT22;27790;50.840;4.386;2022-07-23T14:32:20;28.60;54.60
39675;DHT22;27790;50.840;4.386;2022-07-23T14:34:46;28.80;53.50
39675;DHT22;27790;50.840;4.386;2022-07-23T14:37:11;28.90;53.80
39675;DHT22;27790;50.840;4.386;2022-07-23T14:39:38;28.90;53.30
39675;DHT22;27790;50.840;4.386;2022-07-23T14:42:04;28.90;54.30
39675;DHT22;27790;50.840;4.386;2022-07-23T14:44:30;28.90;53.80
39675;DHT22;27790;50.840;4.386;2022-07-23T14:46:55;28.90;53.30
39675;DHT22;27790;50.840;4.386;2022-07-23T14:49:21;29.00;55.70
39675;DHT22;27790;50.840;4.386;2022-07-23T14:51:47;28.90;55.70
39675;DHT22;27790;50.840;4.386;2022-07-23T14:54:13;28.80;55.00
39675;DHT22;27790;50.840;4.386;2022-07-23T14:56:40;28.70;54.70
39675;DHT22;27790;50.840;4.386;2022-07-23T14:59:05;28.60;55.70
39675;DHT22;27790;50.840;4.386;2022-07-23T15:01:31;28.60;54.80
39675;DHT22;27790;50.840;4.386;2022-07-23T15:03:57;28.70;54.70
39675;DHT22;27790;50.840;4.386;2022-07-23T15:06:23;28.70;53.90
39675;DHT22;27790;50.840;4.386;2022-07-23T15:08:48;28.80;54.50
39675;DHT22;27790;50.840;4.386;2022-07-23T15:11:14;28.90;53.30
39675;DHT22;27790;50.840;4.386;2022-07-23T15:13:40;28.80;53.90
39675;DHT22;27790;50.840;4.386;2022-07-23T15:16:05;28.80;55.20
39675;DHT22;27790;50.840;4.386;2022-07-23T15:18:31;28.80;54.10
39675;DHT22;27790;50.840;4.386;2022-07-23T15:20:57;28.80;54.80
39675;DHT22;27790;50.840;4.386;2022-07-23T15:23:23;28.70;53.30
39675;DHT22;27790;50.840;4.386;2022-07-23T15:25:49;28.70;53.70
39675;DHT22;27790;50.840;4.386;2022-07-23T15:28:15;28.60;55.20
39675;DHT22;27790;50.840;4.386;2022-07-23T15:30:40;28.50;53.90
39675;DHT22;27790;50.840;4.386;2022-07-23T15:33:07;28.60;54.20
39675;DHT22;27790;50.840;4.386;2022-07-23T15:35:33;28.50;53.50
39675;DHT22;27790;50.840;4.386;2022-07-23T15:37:59;28.40;53.20
39675;DHT22;27790;50.840;4.386;2022-07-23T15:40:25;28.40;53.30
39675;DHT22;27790;50.840;4.386;2022-07-23T15:42:51;28.30;53.00
39675;DHT22;27790;50.840;4.386;2022-07-23T15:45:16;28.20;54.10
39675;DHT22;27790;50.840;4.386;2022-07-23T15:47:42;28.20;54.20
39675;DHT22;27790;50.840;4.386;2022-07-23T15:50:09;28.20;53.90
39675;DHT22;27790;50.840;4.386;2022-07-23T15:52:35;28.30;53.90
39675;DHT22;27790;50.840;4.386;2022-07-23T15:55:02;28.30;54.40
39675;DHT22;27790;50.840;4.386;2022-07-23T15:57:28;28.30;54.10
39675;DHT22;27790;50.840;4.386;2022-07-23T15:59:54;28.30;54.60
39675;DHT22;27790;50.840;4.386;2022-07-23T16:02:22;28.30;54.40
39675;DHT22;27790;50.840;4.386;2022-07-23T16:04:48;28.30;54.10
39675;DHT22;27790;50.840;4.386;2022-07-23T16:07:16;28.50;54.60
39675;DHT22;27790;50.840;4.386;2022-07-23T16:09:43;28.60;54.40
39675;DHT22;27790;50.840;4.386;2022-07-23T16:12:08;28.70;54.70
39675;DHT22;27790;50.840;4.386;2022-07-23T16:14:34;28.80;53.90
39675;DHT22;27790;50.840;4.386;2022-07-23T16:17:00;28.70;52.90
39675;DHT22;27790;50.840;4.386;2022-07-23T16:19:26;28.60;52.90
39675;DHT22;27790;50.840;4.386;2022-07-23T16:21:51;28.40;53.20
39675;DHT22;27790;50.840;4.386;2022-07-23T16:24:17;28.30;53.60